LFOBLFRT

Guest
Details From LFOB - Beauvais-Tille
To LFRT - Saint Brieuc Armor
Flight Number -
Tags generated
Created
Modified
Stats Distance 204 nm / 377 km
Max Altitude 22,100 ft / 6,736 m
Waypoints 3
Social Downloads 3
Likes 0
Share VATSIM

Download

Looking for another format? Having issues loading an existing format? Contact us
Advertisement - Login to hide

Notes

Basic altitude profile: - Ascent Rate: 2500ft/min - Ascent Speed: 250kts - Cruise Altitude: 35000ft - Cruise Speed: 420kts - Descent Rate: 1500ft/min - Descent Speed: 250kts Options: - Use NATs: yes - Use PACOTS: yes - Use low airways: yes - Use high airways: yes

Route

LFOB RUBIX LFRT

ID Type Via Altitude Latitude Longitude Leg Dist Tot Dist Heading (true) Name
O LFOB APT - 0 ft / 0 m 49.45600˚ 2.11891˚ - 0 nm - Beauvais-Tille
RUBIX FIX - 22,100 ft / 6,736 m 49.06917˚ -0.25000˚ 95 nm 95 nm 257° / 255° -
O LFRT APT - 0 ft / 0 m 48.53826˚ -2.85461˚ 107 nm 203 nm 254° / 252° Saint Brieuc Armor

Altitude Profile

Advertisement - Login to hide

Weather


0- 5 10 15 20 25 30 35+ Temperature / ° C

Clouds and Precipitation
Forecast for 2017-12-12 12:00 UTC. Updated an hour ago

Ground ~20,000 ft ~40,000 ft Winds

LFOB

Details ICAO LFOB (BVA)
Name Beauvais-Tille
Region France
Timezone Europe/Paris (UTC+1.0)
Stats Elevation 358 ft / 109 m (AMSL)
Location 49.456000° 2.118914°
Runways 2
Magnetic Variation 0.474° E

METAR

LFOB 121230Z AUTO 24006KT CAVOK 05/02 Q1011 NOSIG

Decode

TAF

TAF TAF LFOB 121100Z 1212/1312 24010KT 9999 SCT030 BECMG 1300/1303 3000 RADZ OVC007 TEMPO 1303/1307 24018G28KT OVC003 PROB30 TEMPO 1303/1307 1200 RASN BECMG 1307/1309 9999 NSW TEMPO 1309/1312 2000 RADZ OVC003

Decode

Departure Runways

ID Width Length Bearing (true) Bearing (mag) Surface Threshold Offset Overrun Length
04 82 ft / 25 m 2,321 ft / 707 m 41.41° 40.94° Asphalt 0 ft / 0 m 0 ft / 0 m
12 148 ft / 45 m 7,954 ft / 2,424 m 123.73° 123.26° Asphalt 148 ft / 45 m 0 ft / 0 m
22 82 ft / 25 m 2,321 ft / 707 m 221.41° 220.94° Asphalt 0 ft / 0 m 0 ft / 0 m
30 148 ft / 45 m 7,954 ft / 2,424 m 303.75° 303.28° Asphalt 0 ft / 0 m 0 ft / 0 m

LFRT

Details ICAO LFRT (SBK)
Name Saint Brieuc Armor
Region France
Timezone Europe/Paris (UTC+1.0)
Stats Elevation 452 ft / 138 m (AMSL)
Location 48.538265° -2.854612°
Runways 1
Magnetic Variation 1.053° W

METAR

LFRT 121230Z AUTO 26006KT 230V290 CAVOK 08/04 Q1012

Decode

TAF

Not found

Destination Runways

ID Width Length Bearing (true) Bearing (mag) Surface Threshold Offset Overrun Length
06 148 ft / 45 m 7,214 ft / 2,199 m 58.77° 59.82° Asphalt 0 ft / 0 m 0 ft / 0 m
24 148 ft / 45 m 7,214 ft / 2,199 m 238.79° 239.84° Asphalt 0 ft / 0 m 0 ft / 0 m

Approach Navaids

Runway Type Ident Frequency Range Bearing (true) Bearing (mag) Slope Elevation
24 Localiser SB 109.95 MHz 18 nm / 33 km 238.78° 239.83° - 452 ft / 138 m (AMSL)
24 Glidescope SB 109.95 MHz 10 nm / 19 km 238.78° 239.83° 3.00° 452 ft / 138 m (AMSL)